Terminal Aerodrome Forecast
Issued by NWS

Home | Current Version | Previous Version | Text Only | Print | Product List | Glossary On
Versions: 1 2 3 4 5 6 7 8 9 10 11 12 13 14
000
FTUS43 KMPX 230500
TAFAXN
TAF
KAXN 230526Z 2306/2406 12006KT P6SM SCT100 BKN200
     FM230900 13010KT P6SM BKN060
     FM231200 13016G24KT 5SM -SHRA BR SCT030 OVC050
     FM231800 13022G30KT 4SM -RA BR SCT018 OVC030
     FM240000 13015G22KT 4SM -RA BR SCT012 OVC020
      TEMPO 2401/2405 2SM -RA BR=

USA.gov is the U.S. government's official web portal to all federal, state and local government web resources and services.